createdAt,value
2019-06-07T00:01:58.688Z,2.20
2019-06-07T00:04:30.186Z,2.80
2019-06-07T00:07:00.590Z,3.17
2019-06-07T00:09:31.036Z,2.60
2019-06-07T00:12:01.525Z,2.57
2019-06-07T00:14:31.910Z,2.35
2019-06-07T00:17:02.327Z,2.77
2019-06-07T00:19:32.790Z,6.58
2019-06-07T00:22:31.558Z,3.15
2019-06-07T00:24:35.268Z,2.83
2019-06-07T00:27:06.341Z,2.50
2019-06-07T00:29:36.763Z,2.40
2019-06-07T00:32:07.250Z,2.60
2019-06-07T00:34:37.642Z,2.27
2019-06-07T00:37:10.468Z,2.73
2019-06-07T00:39:40.135Z,2.55
2019-06-07T00:42:11.465Z,2.70
2019-06-07T00:44:42.636Z,3.12
2019-06-07T00:47:13.085Z,2.23
2019-06-07T00:49:44.634Z,3.27
2019-06-07T00:53:05.613Z,2.50
2019-06-07T00:54:47.118Z,2.87
2019-06-07T00:57:19.492Z,2.77
2019-06-07T00:59:49.706Z,2.60
2019-06-07T01:02:24.717Z,2.53
2019-06-07T01:04:52.278Z,2.22
2019-06-07T01:07:24.446Z,2.65
2019-06-07T01:09:55.160Z,2.33
2019-06-07T01:12:27.101Z,2.45
2019-06-07T01:14:57.762Z,2.62
2019-06-07T01:17:49.717Z,2.30
2019-06-07T01:20:04.314Z,2.65
2019-06-07T01:25:07.102Z,3.42
2019-06-07T01:27:37.487Z,3.20
2019-06-07T01:30:12.937Z,1.92
2019-06-07T01:32:43.311Z,2.52
2019-06-07T01:35:13.933Z,2.77
2019-06-07T01:37:44.326Z,3.00
2019-06-07T01:40:17.287Z,2.80
2019-06-07T01:42:48.650Z,2.67
2019-06-07T01:45:19.553Z,2.90
2019-06-07T01:47:50.328Z,2.58
2019-06-07T01:50:24.478Z,2.03
2019-06-07T01:52:53.454Z,3.25
2019-06-07T01:55:27.306Z,3.80
2019-06-07T01:57:55.935Z,2.52
2019-06-07T02:00:32.002Z,2.67
2019-06-07T02:02:58.777Z,2.40
2019-06-07T02:05:30.961Z,2.43
2019-06-07T02:08:01.303Z,2.40
2019-06-07T02:10:33.689Z,2.70
2019-06-07T02:13:03.885Z,2.77
2019-06-07T02:15:36.624Z,2.80
2019-06-07T02:18:06.505Z,3.25
2019-06-07T02:20:36.911Z,9.18
2019-06-07T02:23:07.325Z,4.22
2019-06-07T02:25:46.036Z,3.40
2019-06-07T02:28:27.106Z,2.87
2019-06-07T02:30:51.059Z,3.20
2019-06-07T02:33:14.098Z,3.17
2019-06-07T02:35:44.579Z,3.30
2019-06-07T02:38:15.176Z,4.50
2019-06-07T02:40:45.581Z,8.35
2019-06-07T02:43:16.033Z,3.13
2019-06-07T02:45:46.402Z,3.20
2019-06-07T02:48:16.806Z,3.10
2019-06-07T02:50:47.240Z,3.07
2019-06-07T02:53:17.691Z,3.42
2019-06-07T02:56:33.837Z,3.33
2019-06-07T02:58:20.205Z,2.85
2019-06-07T03:01:06.486Z,3.07
2019-06-07T03:03:24.597Z,3.55
2019-06-07T03:05:55.962Z,3.10
2019-06-07T03:10:59.600Z,3.65
2019-06-07T03:16:07.911Z,3.45
2019-06-07T03:18:51.045Z,3.40
2019-06-07T03:21:24.226Z,3.98
2019-06-07T03:23:56.931Z,3.80
2019-06-07T03:26:30.438Z,3.83
2019-06-07T03:29:00.845Z,3.67
2019-06-07T03:31:38.016Z,2.80
2019-06-07T03:34:03.357Z,2.67
2019-06-07T03:36:35.441Z,3.60
2019-06-07T03:39:07.390Z,3.27
2019-06-07T03:41:49.901Z,3.40
2019-06-07T03:44:09.949Z,3.42
2019-06-07T03:46:41.407Z,3.83
2019-06-07T03:49:12.281Z,3.70
2019-06-07T03:51:42.680Z,3.93
2019-06-07T03:54:13.080Z,3.97
2019-06-07T03:56:43.482Z,3.87
2019-06-07T03:59:13.902Z,3.80
2019-06-07T04:01:44.304Z,4.23
2019-06-07T04:04:14.717Z,5.73
2019-06-07T04:06:45.143Z,4.90
2019-06-07T04:09:15.555Z,5.10
2019-06-07T04:11:45.978Z,5.47
2019-06-07T04:14:16.375Z,5.00
2019-06-07T04:16:46.790Z,5.37
2019-06-07T04:19:17.255Z,6.15
2019-06-07T04:21:47.742Z,6.08
2019-06-07T04:24:19.142Z,6.00
2019-06-07T04:26:49.630Z,6.10
2019-06-07T04:29:56.768Z,6.85
2019-06-07T04:31:52.131Z,16.60
2019-06-07T04:34:22.613Z,8.47
2019-06-07T04:36:59.219Z,8.25
2019-06-07T04:39:27.006Z,7.58
2019-06-07T04:41:58.031Z,8.23
2019-06-07T04:44:31.116Z,7.33
2019-06-07T04:47:03.517Z,6.90
2019-06-07T04:49:38.116Z,6.67
2019-06-07T04:52:07.758Z,6.33
2019-06-07T04:54:45.232Z,5.90
2019-06-07T04:57:10.243Z,6.50
2019-06-07T05:00:10.449Z,6.43
2019-06-07T05:02:12.735Z,6.28
2019-06-07T05:04:44.005Z,6.47
2019-06-07T05:07:14.591Z,6.47
2019-06-07T05:09:46.097Z,6.67
2019-06-07T05:12:16.493Z,6.45
2019-06-07T05:14:46.902Z,6.33
2019-06-07T05:17:17.310Z,6.10
2019-06-07T05:19:48.246Z,28.60
2019-06-07T05:22:18.773Z,8.68
2019-06-07T05:24:49.174Z,4.85
2019-06-07T05:27:19.603Z,4.80
2019-06-07T05:30:08.862Z,4.45
2019-06-07T05:32:22.119Z,4.55
2019-06-07T05:34:52.531Z,4.33
2019-06-07T05:37:22.972Z,3.87
2019-06-07T05:39:53.398Z,4.20
2019-06-07T05:42:23.831Z,5.33
2019-06-07T05:44:54.243Z,4.72
2019-06-07T05:47:25.512Z,4.85
2019-06-07T05:49:56.058Z,4.20
2019-06-07T05:52:26.513Z,2.52
2019-06-07T05:54:56.967Z,3.87
2019-06-07T05:57:28.425Z,4.22
2019-06-07T05:59:58.994Z,3.75
2019-06-07T06:02:31.140Z,3.62
2019-06-07T06:05:01.692Z,3.45
2019-06-07T06:07:34.758Z,3.30
2019-06-07T06:10:08.062Z,3.15
2019-06-07T06:12:43.228Z,3.42
2019-06-07T06:15:11.206Z,4.20
2019-06-07T06:17:45.981Z,5.50
2019-06-07T06:20:15.435Z,4.75
2019-06-07T06:22:48.725Z,3.87
2019-06-07T06:25:34.430Z,3.15
2019-06-07T06:28:10.506Z,3.58
2019-06-07T06:30:23.081Z,5.42
2019-06-07T06:35:24.740Z,4.17
2019-06-07T06:37:55.206Z,3.70
2019-06-07T06:40:26.607Z,4.20
2019-06-07T06:42:56.978Z,4.10
2019-06-07T06:45:27.390Z,4.75
2019-06-07T06:47:57.762Z,3.67
2019-06-07T06:50:28.272Z,3.37
2019-06-07T06:52:58.665Z,8.00
2019-06-07T06:55:29.083Z,4.30
2019-06-07T06:57:59.457Z,3.42
2019-06-07T07:00:53.641Z,3.45
2019-06-07T07:03:54.275Z,8.80
2019-06-07T07:05:54.323Z,3.55
2019-06-07T07:08:25.356Z,3.92
2019-06-07T07:10:55.737Z,3.70
2019-06-07T07:13:26.227Z,4.05
2019-06-07T07:15:58.358Z,3.50
2019-06-07T07:18:29.652Z,3.62
2019-06-07T07:21:00.101Z,3.80
2019-06-07T07:23:30.623Z,3.77
2019-06-07T07:26:01.108Z,4.28
2019-06-07T07:28:31.563Z,4.47
2019-06-07T07:31:01.971Z,4.87
2019-06-07T07:34:21.097Z,4.50
2019-06-07T07:36:23.217Z,4.30
2019-06-07T07:38:36.702Z,4.22
2019-06-07T07:41:14.656Z,4.70
2019-06-07T07:43:39.197Z,4.85
2019-06-07T07:46:28.464Z,5.42
2019-06-07T07:48:41.982Z,5.10
2019-06-07T07:51:12.346Z,4.08
2019-06-07T07:53:52.443Z,5.62
2019-06-07T07:56:16.234Z,7.30
2019-06-07T07:58:50.405Z,3.47
2019-06-07T08:01:18.887Z,3.30
2019-06-07T08:03:50.704Z,3.67
2019-06-07T08:06:21.540Z,7.00
2019-06-07T08:08:55.817Z,5.42
2019-06-07T08:11:25.008Z,4.33
2019-06-07T08:13:57.320Z,4.20
2019-06-07T08:16:27.495Z,4.17
2019-06-07T08:19:03.491Z,4.53
2019-06-07T08:21:30.095Z,4.08
2019-06-07T08:24:04.389Z,4.37
2019-06-07T08:26:32.596Z,4.75
2019-06-07T08:29:03.385Z,5.40
2019-06-07T08:34:03.802Z,4.60
2019-06-07T08:36:41.896Z,4.78
2019-06-07T08:39:08.384Z,5.42
2019-06-07T08:41:53.499Z,4.37
2019-06-07T08:44:23.202Z,4.05
2019-06-07T08:46:43.166Z,4.17
2019-06-07T08:49:13.592Z,4.03
2019-06-07T08:51:44.087Z,4.85
2019-06-07T08:54:22.249Z,4.60
2019-06-07T08:56:46.571Z,4.47
2019-06-07T08:59:17.003Z,4.97
2019-06-07T09:01:47.386Z,3.55
2019-06-07T09:04:17.783Z,3.67
2019-06-07T09:07:06.719Z,3.27
2019-06-07T09:09:20.380Z,6.62
2019-06-07T09:11:50.876Z,3.62
2019-06-07T09:14:21.265Z,3.83
2019-06-07T09:16:51.683Z,18.48
2019-06-07T09:19:22.063Z,4.30
2019-06-07T09:21:52.482Z,3.75
2019-06-07T09:24:22.962Z,3.67
2019-06-07T09:26:53.335Z,3.72
2019-06-07T09:29:24.010Z,3.47
2019-06-07T09:31:54.422Z,3.40
2019-06-07T09:34:24.926Z,3.10
2019-06-07T09:36:58.151Z,3.72
2019-06-07T09:39:27.782Z,2.67
2019-06-07T09:41:58.741Z,2.80
2019-06-07T09:44:30.274Z,2.87
2019-06-07T09:47:19.483Z,2.90
2019-06-07T09:49:33.585Z,3.35
2019-06-07T09:52:10.356Z,3.30
2019-06-07T09:55:06.133Z,3.37
2019-06-07T09:57:16.655Z,3.10
2019-06-07T09:59:40.639Z,3.10
2019-06-07T10:02:13.736Z,2.72
2019-06-07T10:04:43.176Z,3.65
2019-06-07T10:07:30.638Z,3.10
2019-06-07T10:12:18.998Z,3.00
2019-06-07T10:14:49.415Z,2.80
2019-06-07T10:17:19.835Z,2.85
2019-06-07T10:19:50.236Z,3.08
2019-06-07T10:22:20.711Z,2.70
2019-06-07T10:24:51.182Z,2.55
2019-06-07T10:27:21.741Z,2.60
2019-06-07T10:29:52.258Z,3.00
2019-06-07T10:32:22.703Z,3.20
2019-06-07T10:34:53.115Z,2.45
2019-06-07T10:37:23.547Z,3.10
2019-06-07T10:39:54.005Z,2.75
2019-06-07T10:42:24.502Z,3.35
2019-06-07T10:44:54.950Z,4.50
2019-06-07T10:47:25.333Z,2.98
2019-06-07T10:49:55.734Z,3.30
2019-06-07T10:52:26.239Z,3.35
2019-06-07T10:54:56.650Z,2.50
2019-06-07T10:57:27.147Z,3.10
2019-06-07T10:59:57.658Z,2.42
2019-06-07T11:02:28.069Z,3.02
2019-06-07T11:04:58.469Z,2.58
2019-06-07T11:07:28.870Z,2.45
2019-06-07T11:10:07.048Z,3.12
2019-06-07T11:12:31.379Z,3.00
2019-06-07T11:15:01.778Z,2.77
2019-06-07T11:17:32.270Z,2.30
2019-06-07T11:20:02.778Z,2.80
2019-06-07T11:22:33.229Z,2.17
2019-06-07T11:25:06.876Z,2.02
2019-06-07T11:27:37.597Z,2.70
2019-06-07T11:30:10.535Z,2.30
2019-06-07T11:32:41.252Z,2.30
2019-06-07T11:35:13.981Z,2.90
2019-06-07T11:37:45.873Z,2.67
2019-06-07T11:40:34.414Z,2.40
2019-06-07T11:42:52.740Z,2.20
2019-06-07T11:45:23.051Z,2.00
2019-06-07T11:47:53.761Z,2.58
2019-06-07T11:50:24.215Z,2.52
2019-06-07T11:52:54.597Z,2.40
2019-06-07T11:55:25.016Z,2.50
2019-06-07T11:57:55.472Z,2.40
2019-06-07T12:00:27.343Z,2.50
2019-06-07T12:02:57.916Z,3.37
2019-06-07T12:05:28.328Z,2.70
2019-06-07T12:07:58.789Z,2.77
2019-06-07T12:10:41.764Z,2.22
2019-06-07T12:13:01.372Z,2.15
2019-06-07T12:15:31.828Z,2.30
2019-06-07T12:18:02.439Z,1.90
2019-06-07T12:20:33.122Z,2.10
2019-06-07T12:23:03.631Z,1.82
2019-06-07T12:25:44.310Z,1.70
2019-06-07T12:28:14.955Z,2.00
2019-06-07T12:30:45.530Z,1.60
2019-06-07T12:33:15.918Z,1.42
2019-06-07T12:35:47.300Z,1.60
2019-06-07T12:38:19.367Z,1.50
2019-06-07T12:40:57.685Z,1.82
2019-06-07T12:43:23.263Z,1.60
2019-06-07T12:45:53.841Z,1.60
2019-06-07T12:48:26.064Z,1.67
2019-06-07T12:50:56.345Z,1.70
2019-06-07T12:53:28.221Z,1.70
2019-06-07T12:56:00.225Z,1.35
2019-06-07T12:58:35.356Z,1.87
2019-06-07T13:01:03.016Z,1.62
2019-06-07T13:03:33.420Z,2.17
2019-06-07T13:06:03.881Z,1.55
2019-06-07T13:08:34.297Z,2.00
2019-06-07T13:11:14.709Z,1.90
2019-06-07T13:13:37.949Z,2.15
2019-06-07T13:16:08.350Z,2.27
2019-06-07T13:18:38.815Z,3.95
2019-06-07T13:21:09.202Z,2.08
2019-06-07T13:23:43.950Z,1.60
2019-06-07T13:26:11.673Z,1.70
2019-06-07T13:28:42.056Z,2.05
2019-06-07T13:31:12.573Z,1.50
2019-06-07T13:33:42.964Z,1.62
2019-06-07T13:36:13.409Z,1.50
2019-06-07T13:38:44.265Z,2.20
2019-06-07T13:43:45.960Z,1.90
2019-06-07T13:46:21.160Z,1.87
2019-06-07T13:48:51.872Z,2.45
2019-06-07T13:51:23.215Z,1.87
2019-06-07T13:53:54.585Z,1.50
2019-06-07T13:56:26.085Z,2.02
2019-06-07T13:58:56.935Z,1.50
2019-06-07T14:01:28.884Z,1.25
2019-06-07T14:03:59.628Z,1.40
2019-06-07T14:06:30.383Z,1.77
2019-06-07T14:09:01.842Z,1.55
2019-06-07T14:11:49.608Z,6.80
2019-06-07T14:14:06.244Z,1.70
2019-06-07T14:16:36.663Z,1.55
2019-06-07T14:19:07.127Z,1.52
2019-06-07T14:21:37.490Z,1.70
2019-06-07T14:24:07.941Z,1.80
2019-06-07T14:26:38.337Z,2.05
2019-06-07T14:29:08.762Z,1.70
2019-06-07T14:31:39.392Z,1.80
2019-06-07T14:34:09.818Z,1.70
2019-06-07T14:36:40.272Z,1.62
2019-06-07T14:39:10.740Z,1.82
2019-06-07T14:41:45.891Z,1.65
2019-06-07T14:44:17.421Z,1.98
2019-06-07T14:46:48.009Z,2.02
2019-06-07T14:49:18.429Z,2.02
2019-06-07T14:51:49.032Z,1.65
2019-06-07T14:54:19.419Z,1.57
2019-06-07T14:56:49.901Z,1.90
2019-06-07T14:59:22.554Z,1.90
2019-06-07T15:01:52.948Z,1.75
2019-06-07T15:04:23.397Z,2.45
2019-06-07T15:06:53.818Z,1.70
2019-06-07T15:09:24.205Z,1.75
2019-06-07T15:11:55.439Z,1.60
2019-06-07T15:14:27.152Z,1.62
2019-06-07T15:16:58.758Z,1.70
2019-06-07T15:19:29.237Z,1.85
2019-06-07T15:22:01.121Z,1.72
2019-06-07T15:24:35.337Z,2.02
2019-06-07T15:27:03.632Z,2.45
2019-06-07T15:29:35.979Z,1.72
2019-06-07T15:32:06.520Z,1.80
2019-06-07T15:34:38.419Z,1.98
2019-06-07T15:37:08.878Z,1.90
2019-06-07T15:39:39.327Z,2.05
2019-06-07T15:42:09.695Z,1.60
2019-06-07T15:44:40.112Z,1.92
2019-06-07T15:47:10.511Z,1.40
2019-06-07T15:49:40.923Z,1.72
2019-06-07T15:52:11.344Z,2.72
2019-06-07T15:54:41.816Z,2.65
2019-06-07T15:57:12.203Z,1.80
2019-06-07T15:59:42.629Z,2.15
2019-06-07T16:02:13.120Z,2.70
2019-06-07T16:04:43.686Z,2.02
2019-06-07T16:07:14.075Z,2.33
2019-06-07T16:09:44.439Z,1.80
2019-06-07T16:12:14.975Z,1.65
2019-06-07T16:14:45.359Z,1.95
2019-06-07T16:17:15.773Z,1.90
2019-06-07T16:19:46.672Z,2.17
2019-06-07T16:22:17.217Z,1.87
2019-06-07T16:24:47.587Z,2.08
2019-06-07T16:27:18.015Z,1.80
2019-06-07T16:29:48.404Z,1.60
2019-06-07T16:32:18.830Z,1.82
2019-06-07T16:34:49.222Z,1.62
2019-06-07T16:37:19.638Z,1.80
2019-06-07T16:39:50.030Z,2.52
2019-06-07T16:42:20.444Z,1.77
2019-06-07T16:44:51.001Z,2.00
2019-06-07T16:47:21.423Z,1.80
2019-06-07T16:49:51.836Z,1.75
2019-06-07T16:52:22.262Z,2.42
2019-06-07T16:54:52.648Z,3.10
2019-06-07T16:57:23.081Z,3.92
2019-06-07T16:59:53.501Z,2.83
2019-06-07T17:02:25.125Z,3.60
2019-06-07T17:04:55.503Z,2.67
2019-06-07T17:07:25.945Z,3.40
2019-06-07T17:09:56.347Z,3.27
2019-06-07T17:12:26.763Z,2.50
2019-06-07T17:14:57.152Z,2.80
2019-06-07T17:17:27.635Z,2.80
2019-06-07T17:19:58.025Z,3.42
2019-06-07T17:22:28.427Z,3.52
2019-06-07T17:24:58.800Z,4.28
2019-06-07T17:27:29.247Z,5.78
2019-06-07T17:29:59.642Z,7.00
2019-06-07T17:32:30.134Z,16.10
2019-06-07T17:35:00.569Z,13.68
2019-06-07T17:37:30.964Z,14.47
2019-06-07T17:40:01.417Z,12.45
2019-06-07T17:42:31.859Z,13.05
2019-06-07T17:45:04.806Z,10.38
2019-06-07T17:47:35.233Z,9.90
2019-06-07T17:50:09.967Z,9.98
2019-06-07T17:52:41.649Z,9.95
2019-06-07T17:55:13.664Z,9.33
2019-06-07T17:57:44.451Z,8.55
2019-06-07T18:00:33.549Z,8.90
2019-06-07T18:02:49.347Z,11.03
2019-06-07T18:05:19.993Z,13.25
2019-06-07T18:07:53.902Z,16.57
2019-06-07T18:10:38.309Z,21.00
2019-06-07T18:13:09.210Z,23.05
2019-06-07T18:15:52.807Z,20.90
2019-06-07T18:18:20.508Z,12.37
2019-06-07T18:20:51.635Z,6.35
2019-06-07T18:23:22.509Z,5.25
2019-06-07T18:25:52.927Z,6.75
2019-06-07T18:28:23.337Z,9.08
2019-06-07T18:30:54.854Z,8.15
2019-06-07T18:33:26.307Z,9.08
2019-06-07T18:35:56.940Z,9.38
2019-06-07T18:38:27.623Z,7.70
2019-06-07T18:40:59.495Z,5.45
2019-06-07T18:43:30.155Z,5.85
2019-06-07T18:46:00.594Z,6.92
2019-06-07T18:48:30.985Z,6.70
2019-06-07T18:51:01.578Z,7.20
2019-06-07T18:53:31.972Z,7.37
2019-06-07T18:56:02.446Z,12.45
2019-06-07T18:58:33.045Z,14.25
2019-06-07T19:01:03.534Z,11.22
2019-06-07T19:03:35.027Z,11.00
2019-06-07T19:06:06.005Z,10.45
2019-06-07T19:08:37.510Z,10.10
2019-06-07T19:11:07.879Z,9.70
2019-06-07T19:13:38.311Z,9.00
2019-06-07T19:16:08.755Z,8.35
2019-06-07T19:18:39.172Z,7.78
2019-06-07T19:21:09.635Z,9.13
2019-06-07T19:23:40.065Z,8.73
2019-06-07T19:26:12.030Z,9.58
2019-06-07T19:28:44.312Z,9.10
2019-06-07T19:31:14.861Z,11.38
2019-06-07T19:33:49.130Z,14.43
2019-06-07T19:36:17.435Z,12.03
2019-06-07T19:38:47.918Z,13.65
2019-06-07T19:41:19.965Z,30.30
2019-06-07T19:43:50.520Z,15.65
2019-06-07T19:46:20.943Z,23.32
2019-06-07T19:48:52.492Z,30.43
2019-06-07T19:51:23.005Z,29.05
2019-06-07T19:53:53.383Z,19.05
2019-06-07T19:56:23.806Z,9.48
2019-06-07T19:58:55.456Z,9.35
2019-06-07T20:01:25.998Z,5.95
2019-06-07T20:03:56.396Z,6.05
2019-06-07T20:06:26.979Z,6.58
2019-06-07T20:08:58.677Z,5.78
2019-06-07T20:11:29.234Z,5.78
2019-06-07T20:14:00.741Z,5.45
2019-06-07T20:16:31.259Z,4.45
2019-06-07T20:19:03.531Z,4.40
2019-06-07T20:21:33.843Z,4.10
2019-06-07T20:24:22.581Z,5.35
2019-06-07T20:26:36.353Z,4.83
2019-06-07T20:29:14.548Z,4.03
2019-06-07T20:31:38.940Z,4.28
2019-06-07T20:34:09.433Z,5.00
2019-06-07T20:36:39.850Z,4.62
2019-06-07T20:39:10.340Z,4.72
2019-06-07T20:41:40.748Z,4.83
2019-06-07T20:44:11.170Z,18.57
2019-06-07T20:46:41.585Z,4.50
2019-06-07T20:49:11.982Z,4.65
2019-06-07T20:51:43.480Z,4.33
2019-06-07T20:54:15.636Z,4.60
2019-06-07T20:56:46.276Z,4.90
2019-06-07T20:59:17.003Z,5.50
2019-06-07T21:01:47.871Z,5.35
2019-06-07T21:04:18.530Z,5.45
2019-06-07T21:06:49.297Z,5.62
2019-06-07T21:09:19.895Z,5.58
2019-06-07T21:11:50.681Z,5.60
2019-06-07T21:14:22.240Z,5.37
2019-06-07T21:16:52.697Z,5.70
2019-06-07T21:19:23.270Z,3.97
2019-06-07T21:21:54.108Z,5.67
2019-06-07T21:24:24.540Z,5.70
2019-06-07T21:26:55.054Z,5.33
2019-06-07T21:29:25.721Z,6.15
2019-06-07T21:31:56.223Z,6.05
2019-06-07T21:34:26.856Z,5.92
2019-06-07T21:36:57.387Z,6.33
2019-06-07T21:39:27.928Z,6.12
2019-06-07T21:41:58.482Z,5.65
2019-06-07T21:44:29.004Z,6.40
2019-06-07T21:46:59.641Z,6.53
2019-06-07T21:49:30.097Z,6.37
2019-06-07T21:52:00.562Z,6.37
2019-06-07T21:54:31.137Z,6.33
2019-06-07T21:57:02.834Z,7.15
2019-06-07T21:59:33.733Z,6.47
2019-06-07T22:02:05.399Z,7.50
2019-06-07T22:04:36.043Z,7.20
2019-06-07T22:07:07.887Z,8.08
2019-06-07T22:09:38.653Z,7.15
2019-06-07T22:12:10.126Z,7.10
2019-06-07T22:14:40.750Z,7.58
2019-06-07T22:17:12.318Z,7.92
2019-06-07T22:19:44.004Z,8.45
2019-06-07T22:22:14.915Z,8.30
2019-06-07T22:24:45.361Z,6.65
2019-06-07T22:27:15.942Z,7.45
2019-06-07T22:29:46.622Z,7.17
2019-06-07T22:32:17.153Z,7.58
2019-06-07T22:34:47.671Z,6.97
2019-06-07T22:37:23.262Z,7.30
2019-06-07T22:39:50.281Z,7.70
2019-06-07T22:42:20.801Z,6.15
2019-06-07T22:44:51.546Z,6.42
2019-06-07T22:47:22.106Z,8.38
2019-06-07T22:49:52.834Z,8.50
2019-06-07T22:52:23.485Z,8.88
2019-06-07T22:54:53.881Z,8.43
2019-06-07T22:57:25.952Z,8.65
2019-06-07T22:59:56.415Z,8.98
2019-06-07T23:02:27.080Z,8.13
2019-06-07T23:04:57.749Z,8.25
2019-06-07T23:07:28.172Z,6.45
2019-06-07T23:09:59.382Z,8.87
2019-06-07T23:14:59.459Z,8.98
2019-06-07T23:17:29.896Z,8.80
2019-06-07T23:20:00.276Z,8.33
2019-06-07T23:22:30.686Z,8.67
2019-06-07T23:25:01.056Z,8.60
2019-06-07T23:27:31.466Z,8.77
2019-06-07T23:30:08.412Z,8.73
2019-06-07T23:32:34.043Z,8.63
2019-06-07T23:35:05.924Z,8.73
2019-06-07T23:37:36.335Z,8.50
2019-06-07T23:40:07.456Z,9.57
2019-06-07T23:42:37.883Z,9.90
2019-06-07T23:45:08.525Z,10.07
2019-06-07T23:47:38.966Z,10.45
2019-06-07T23:50:09.617Z,11.27
2019-06-07T23:52:40.052Z,10.70
2019-06-07T23:55:11.781Z,11.10
2019-06-07T23:57:42.339Z,10.53
